sensor_id;sensor_type;location;lat;lon;timestamp;P1;durP1;ratioP1;P2;durP2;ratioP2
31004;SDS011;17676;52.254;4.490;2023-04-03T00:01:34;5.27;;;0.87;;
31004;SDS011;17676;52.254;4.490;2023-04-03T00:07:21;2.20;;;0.40;;
31004;SDS011;17676;52.254;4.490;2023-04-03T00:09:46;2.03;;;0.60;;
31004;SDS011;17676;52.254;4.490;2023-04-03T00:12:12;3.97;;;0.70;;
31004;SDS011;17676;52.254;4.490;2023-04-03T00:14:38;3.93;;;0.60;;
31004;SDS011;17676;52.254;4.490;2023-04-03T00:17:04;2.17;;;0.63;;
31004;SDS011;17676;52.254;4.490;2023-04-03T00:19:32;6.27;;;1.00;;
31004;SDS011;17676;52.254;4.490;2023-04-03T00:21:57;1.40;;;0.70;;
31004;SDS011;17676;52.254;4.490;2023-04-03T00:24:24;5.00;;;0.73;;
31004;SDS011;17676;52.254;4.490;2023-04-03T00:26:51;3.30;;;0.73;;
31004;SDS011;17676;52.254;4.490;2023-04-03T00:29:16;2.70;;;0.53;;
31004;SDS011;17676;52.254;4.490;2023-04-03T00:31:42;3.80;;;0.90;;
31004;SDS011;17676;52.254;4.490;2023-04-03T00:34:08;1.57;;;0.40;;
31004;SDS011;17676;52.254;4.490;2023-04-03T00:36:39;0.97;;;0.60;;
31004;SDS011;17676;52.254;4.490;2023-04-03T00:39:06;1.73;;;0.50;;
31004;SDS011;17676;52.254;4.490;2023-04-03T00:41:35;4.13;;;0.60;;
31004;SDS011;17676;52.254;4.490;2023-04-03T00:44:00;0.80;;;0.43;;
31004;SDS011;17676;52.254;4.490;2023-04-03T00:46:42;3.10;;;0.70;;
31004;SDS011;17676;52.254;4.490;2023-04-03T00:49:08;2.33;;;0.60;;
31004;SDS011;17676;52.254;4.490;2023-04-03T00:51:33;3.10;;;0.77;;
31004;SDS011;17676;52.254;4.490;2023-04-03T00:54:00;2.30;;;0.60;;
31004;SDS011;17676;52.254;4.490;2023-04-03T00:56:30;1.03;;;0.50;;
31004;SDS011;17676;52.254;4.490;2023-04-03T00:58:58;2.63;;;0.60;;
31004;SDS011;17676;52.254;4.490;2023-04-03T01:01:28;2.10;;;0.40;;
31004;SDS011;17676;52.254;4.490;2023-04-03T01:03:58;1.77;;;0.60;;
31004;SDS011;17676;52.254;4.490;2023-04-03T01:06:28;3.80;;;0.80;;
31004;SDS011;17676;52.254;4.490;2023-04-03T01:08:59;2.57;;;0.50;;
31004;SDS011;17676;52.254;4.490;2023-04-03T01:11:25;0.60;;;0.40;;
31004;SDS011;17676;52.254;4.490;2023-04-03T01:13:52;3.37;;;0.70;;
31004;SDS011;17676;52.254;4.490;2023-04-03T01:16:18;4.23;;;0.30;;
31004;SDS011;17676;52.254;4.490;2023-04-03T01:18:49;1.50;;;0.40;;
31004;SDS011;17676;52.254;4.490;2023-04-03T01:21:36;2.77;;;0.40;;
31004;SDS011;17676;52.254;4.490;2023-04-03T01:26:50;2.03;;;0.30;;
31004;SDS011;17676;52.254;4.490;2023-04-03T01:29:16;2.67;;;0.30;;
31004;SDS011;17676;52.254;4.490;2023-04-03T01:31:49;1.57;;;0.37;;
31004;SDS011;17676;52.254;4.490;2023-04-03T01:34:19;3.17;;;0.80;;
31004;SDS011;17676;52.254;4.490;2023-04-03T01:36:45;1.27;;;0.63;;
31004;SDS011;17676;52.254;4.490;2023-04-03T01:39:11;1.10;;;0.30;;
31004;SDS011;17676;52.254;4.490;2023-04-03T01:41:37;2.20;;;0.60;;
31004;SDS011;17676;52.254;4.490;2023-04-03T01:44:04;0.93;;;0.33;;
31004;SDS011;17676;52.254;4.490;2023-04-03T01:46:29;1.67;;;0.47;;
31004;SDS011;17676;52.254;4.490;2023-04-03T01:48:55;1.13;;;0.30;;
31004;SDS011;17676;52.254;4.490;2023-04-03T01:51:21;1.73;;;0.47;;
31004;SDS011;17676;52.254;4.490;2023-04-03T01:53:46;1.60;;;0.40;;
31004;SDS011;17676;52.254;4.490;2023-04-03T01:56:13;2.93;;;0.40;;
31004;SDS011;17676;52.254;4.490;2023-04-03T01:58:39;1.33;;;0.30;;
31004;SDS011;17676;52.254;4.490;2023-04-03T02:01:06;1.80;;;0.30;;
31004;SDS011;17676;52.254;4.490;2023-04-03T02:03:31;1.37;;;0.50;;
31004;SDS011;17676;52.254;4.490;2023-04-03T02:05:58;1.13;;;0.30;;
31004;SDS011;17676;52.254;4.490;2023-04-03T02:08:28;1.30;;;0.30;;
31004;SDS011;17676;52.254;4.490;2023-04-03T02:11:03;1.23;;;0.50;;
31004;SDS011;17676;52.254;4.490;2023-04-03T02:13:33;2.87;;;0.50;;
31004;SDS011;17676;52.254;4.490;2023-04-03T02:16:08;2.17;;;0.20;;
31004;SDS011;17676;52.254;4.490;2023-04-03T02:18:48;0.73;;;0.30;;
31004;SDS011;17676;52.254;4.490;2023-04-03T02:21:20;1.93;;;0.30;;
31004;SDS011;17676;52.254;4.490;2023-04-03T02:24:16;1.80;;;0.50;;
31004;SDS011;17676;52.254;4.490;2023-04-03T02:26:43;3.77;;;0.60;;
31004;SDS011;17676;52.254;4.490;2023-04-03T02:29:12;2.10;;;0.20;;
31004;SDS011;17676;52.254;4.490;2023-04-03T02:31:40;2.57;;;0.30;;
31004;SDS011;17676;52.254;4.490;2023-04-03T02:34:55;0.93;;;0.30;;
31004;SDS011;17676;52.254;4.490;2023-04-03T02:37:24;0.67;;;0.30;;
31004;SDS011;17676;52.254;4.490;2023-04-03T02:40:10;3.97;;;0.40;;
31004;SDS011;17676;52.254;4.490;2023-04-03T02:43:31;2.57;;;0.47;;
31004;SDS011;17676;52.254;4.490;2023-04-03T02:45:57;0.93;;;0.40;;
31004;SDS011;17676;52.254;4.490;2023-04-03T02:48:23;2.67;;;0.50;;
31004;SDS011;17676;52.254;4.490;2023-04-03T02:50:58;5.87;;;0.67;;
31004;SDS011;17676;52.254;4.490;2023-04-03T02:53:33;2.63;;;0.53;;
31004;SDS011;17676;52.254;4.490;2023-04-03T02:56:00;2.50;;;0.40;;
31004;SDS011;17676;52.254;4.490;2023-04-03T02:58:26;1.50;;;0.40;;
31004;SDS011;17676;52.254;4.490;2023-04-03T03:00:54;1.60;;;0.40;;
31004;SDS011;17676;52.254;4.490;2023-04-03T03:03:20;1.83;;;0.40;;
31004;SDS011;17676;52.254;4.490;2023-04-03T03:05:46;2.17;;;0.57;;
31004;SDS011;17676;52.254;4.490;2023-04-03T03:08:13;1.53;;;0.60;;
31004;SDS011;17676;52.254;4.490;2023-04-03T03:10:38;3.47;;;0.60;;
31004;SDS011;17676;52.254;4.490;2023-04-03T03:13:04;2.30;;;0.60;;
31004;SDS011;17676;52.254;4.490;2023-04-03T03:15:30;4.50;;;0.57;;
31004;SDS011;17676;52.254;4.490;2023-04-03T03:17:56;3.07;;;0.63;;
31004;SDS011;17676;52.254;4.490;2023-04-03T03:20:25;2.33;;;0.47;;
31004;SDS011;17676;52.254;4.490;2023-04-03T03:22:50;3.20;;;0.43;;
31004;SDS011;17676;52.254;4.490;2023-04-03T03:25:19;2.50;;;0.40;;
31004;SDS011;17676;52.254;4.490;2023-04-03T03:27:45;3.37;;;0.50;;
31004;SDS011;17676;52.254;4.490;2023-04-03T03:30:11;4.00;;;0.77;;
31004;SDS011;17676;52.254;4.490;2023-04-03T03:32:37;0.97;;;0.43;;
31004;SDS011;17676;52.254;4.490;2023-04-03T03:35:03;4.30;;;0.60;;
31004;SDS011;17676;52.254;4.490;2023-04-03T03:37:29;1.97;;;0.53;;
31004;SDS011;17676;52.254;4.490;2023-04-03T03:39:55;3.57;;;0.90;;
31004;SDS011;17676;52.254;4.490;2023-04-03T03:42:22;1.00;;;0.40;;
31004;SDS011;17676;52.254;4.490;2023-04-03T03:44:47;4.00;;;1.53;;
31004;SDS011;17676;52.254;4.490;2023-04-03T03:47:15;2.77;;;0.63;;
31004;SDS011;17676;52.254;4.490;2023-04-03T03:49:41;3.80;;;0.40;;
31004;SDS011;17676;52.254;4.490;2023-04-03T03:52:07;6.90;;;0.60;;
31004;SDS011;17676;52.254;4.490;2023-04-03T03:54:36;2.10;;;1.23;;
31004;SDS011;17676;52.254;4.490;2023-04-03T03:57:02;2.03;;;0.50;;
31004;SDS011;17676;52.254;4.490;2023-04-03T03:59:29;2.93;;;0.70;;
31004;SDS011;17676;52.254;4.490;2023-04-03T04:01:56;4.33;;;0.70;;
31004;SDS011;17676;52.254;4.490;2023-04-03T04:04:22;3.07;;;0.90;;
31004;SDS011;17676;52.254;4.490;2023-04-03T04:06:48;2.63;;;0.70;;
31004;SDS011;17676;52.254;4.490;2023-04-03T04:09:14;3.80;;;0.50;;
31004;SDS011;17676;52.254;4.490;2023-04-03T04:11:42;2.37;;;0.60;;
31004;SDS011;17676;52.254;4.490;2023-04-03T04:14:08;1.20;;;0.40;;
31004;SDS011;17676;52.254;4.490;2023-04-03T04:16:35;3.80;;;0.70;;
31004;SDS011;17676;52.254;4.490;2023-04-03T04:19:01;4.57;;;0.53;;
31004;SDS011;17676;52.254;4.490;2023-04-03T04:21:27;1.03;;;0.47;;
31004;SDS011;17676;52.254;4.490;2023-04-03T04:23:54;2.03;;;0.63;;
31004;SDS011;17676;52.254;4.490;2023-04-03T04:26:19;1.93;;;0.60;;
31004;SDS011;17676;52.254;4.490;2023-04-03T04:28:45;2.80;;;0.50;;
31004;SDS011;17676;52.254;4.490;2023-04-03T04:31:11;2.43;;;0.70;;
31004;SDS011;17676;52.254;4.490;2023-04-03T04:33:38;4.43;;;0.93;;
31004;SDS011;17676;52.254;4.490;2023-04-03T04:36:08;3.43;;;0.63;;
31004;SDS011;17676;52.254;4.490;2023-04-03T04:38:39;4.30;;;0.80;;
31004;SDS011;17676;52.254;4.490;2023-04-03T04:41:05;2.37;;;0.70;;
31004;SDS011;17676;52.254;4.490;2023-04-03T04:43:32;1.33;;;0.60;;
31004;SDS011;17676;52.254;4.490;2023-04-03T04:46:06;5.53;;;0.90;;
31004;SDS011;17676;52.254;4.490;2023-04-03T04:48:36;2.33;;;0.73;;
31004;SDS011;17676;52.254;4.490;2023-04-03T04:51:06;3.17;;;0.80;;
31004;SDS011;17676;52.254;4.490;2023-04-03T04:56:55;5.43;;;1.00;;
31004;SDS011;17676;52.254;4.490;2023-04-03T04:59:51;5.70;;;1.20;;
31004;SDS011;17676;52.254;4.490;2023-04-03T05:05:29;5.20;;;0.80;;
31004;SDS011;17676;52.254;4.490;2023-04-03T05:08:19;4.30;;;1.20;;
31004;SDS011;17676;52.254;4.490;2023-04-03T05:10:46;2.70;;;1.37;;
31004;SDS011;17676;52.254;4.490;2023-04-03T05:13:14;1.27;;;0.80;;
31004;SDS011;17676;52.254;4.490;2023-04-03T05:15:45;1.83;;;0.97;;
31004;SDS011;17676;52.254;4.490;2023-04-03T05:18:14;3.33;;;1.03;;
31004;SDS011;17676;52.254;4.490;2023-04-03T05:20:43;5.73;;;1.27;;
31004;SDS011;17676;52.254;4.490;2023-04-03T05:23:10;3.00;;;0.83;;
31004;SDS011;17676;52.254;4.490;2023-04-03T05:25:38;5.00;;;1.37;;
31004;SDS011;17676;52.254;4.490;2023-04-03T05:28:05;2.57;;;1.13;;
31004;SDS011;17676;52.254;4.490;2023-04-03T05:30:34;2.70;;;1.00;;
31004;SDS011;17676;52.254;4.490;2023-04-03T05:33:01;5.03;;;1.37;;
31004;SDS011;17676;52.254;4.490;2023-04-03T05:35:27;6.83;;;1.50;;
31004;SDS011;17676;52.254;4.490;2023-04-03T05:37:53;5.27;;;1.10;;
31004;SDS011;17676;52.254;4.490;2023-04-03T05:43:24;2.80;;;1.17;;
31004;SDS011;17676;52.254;4.490;2023-04-03T05:45:51;3.30;;;0.80;;
31004;SDS011;17676;52.254;4.490;2023-04-03T05:48:18;6.47;;;0.80;;
31004;SDS011;17676;52.254;4.490;2023-04-03T05:50:45;5.97;;;1.00;;
31004;SDS011;17676;52.254;4.490;2023-04-03T05:53:22;2.97;;;1.40;;
31004;SDS011;17676;52.254;4.490;2023-04-03T05:55:52;4.67;;;1.10;;
31004;SDS011;17676;52.254;4.490;2023-04-03T05:58:19;4.77;;;1.30;;
31004;SDS011;17676;52.254;4.490;2023-04-03T06:00:45;5.77;;;1.10;;
31004;SDS011;17676;52.254;4.490;2023-04-03T06:03:12;5.23;;;0.97;;
31004;SDS011;17676;52.254;4.490;2023-04-03T06:05:38;5.87;;;1.10;;
31004;SDS011;17676;52.254;4.490;2023-04-03T06:08:04;5.40;;;1.20;;
31004;SDS011;17676;52.254;4.490;2023-04-03T06:10:31;3.93;;;1.13;;
31004;SDS011;17676;52.254;4.490;2023-04-03T06:12:57;4.47;;;1.10;;
31004;SDS011;17676;52.254;4.490;2023-04-03T06:15:23;3.03;;;0.83;;
31004;SDS011;17676;52.254;4.490;2023-04-03T06:17:55;4.97;;;0.80;;
31004;SDS011;17676;52.254;4.490;2023-04-03T06:20:22;3.30;;;1.00;;
31004;SDS011;17676;52.254;4.490;2023-04-03T06:22:49;4.90;;;1.10;;
31004;SDS011;17676;52.254;4.490;2023-04-03T06:25:15;5.00;;;1.03;;
31004;SDS011;17676;52.254;4.490;2023-04-03T06:27:43;4.27;;;0.80;;
31004;SDS011;17676;52.254;4.490;2023-04-03T06:30:12;3.40;;;0.73;;
31004;SDS011;17676;52.254;4.490;2023-04-03T06:32:41;5.80;;;0.80;;
31004;SDS011;17676;52.254;4.490;2023-04-03T06:35:08;8.53;;;1.23;;
31004;SDS011;17676;52.254;4.490;2023-04-03T06:37:34;3.40;;;1.00;;
31004;SDS011;17676;52.254;4.490;2023-04-03T06:40:00;2.73;;;0.83;;
31004;SDS011;17676;52.254;4.490;2023-04-03T06:42:26;3.60;;;0.60;;
31004;SDS011;17676;52.254;4.490;2023-04-03T06:44:52;3.20;;;0.70;;
31004;SDS011;17676;52.254;4.490;2023-04-03T06:47:18;3.40;;;0.90;;
31004;SDS011;17676;52.254;4.490;2023-04-03T06:49:44;3.97;;;0.83;;
31004;SDS011;17676;52.254;4.490;2023-04-03T06:52:10;3.47;;;0.90;;
31004;SDS011;17676;52.254;4.490;2023-04-03T06:54:40;2.90;;;1.00;;
31004;SDS011;17676;52.254;4.490;2023-04-03T06:57:06;4.33;;;0.70;;
31004;SDS011;17676;52.254;4.490;2023-04-03T06:59:32;1.93;;;0.90;;
31004;SDS011;17676;52.254;4.490;2023-04-03T07:01:58;6.27;;;0.80;;
31004;SDS011;17676;52.254;4.490;2023-04-03T07:04:24;4.37;;;1.20;;
31004;SDS011;17676;52.254;4.490;2023-04-03T07:06:50;6.37;;;1.40;;
31004;SDS011;17676;52.254;4.490;2023-04-03T07:09:22;2.23;;;0.70;;
31004;SDS011;17676;52.254;4.490;2023-04-03T07:11:49;4.57;;;0.90;;
31004;SDS011;17676;52.254;4.490;2023-04-03T07:14:15;5.70;;;0.80;;
31004;SDS011;17676;52.254;4.490;2023-04-03T07:16:41;3.30;;;0.53;;
31004;SDS011;17676;52.254;4.490;2023-04-03T07:19:06;4.10;;;0.70;;
31004;SDS011;17676;52.254;4.490;2023-04-03T07:21:34;2.77;;;0.73;;
31004;SDS011;17676;52.254;4.490;2023-04-03T07:24:00;3.83;;;0.80;;
31004;SDS011;17676;52.254;4.490;2023-04-03T07:26:26;5.57;;;0.73;;
31004;SDS011;17676;52.254;4.490;2023-04-03T07:28:52;3.00;;;0.60;;
31004;SDS011;17676;52.254;4.490;2023-04-03T07:31:22;0.83;;;0.60;;
31004;SDS011;17676;52.254;4.490;2023-04-03T07:33:57;2.27;;;0.57;;
31004;SDS011;17676;52.254;4.490;2023-04-03T07:36:37;3.20;;;0.63;;
31004;SDS011;17676;52.254;4.490;2023-04-03T07:39:03;2.60;;;0.50;;
31004;SDS011;17676;52.254;4.490;2023-04-03T07:41:29;2.42;;;0.35;;
31004;SDS011;17676;52.254;4.490;2023-04-03T07:43:58;2.88;;;0.52;;
31004;SDS011;17676;52.254;4.490;2023-04-03T07:46:23;5.25;;;0.50;;
31004;SDS011;17676;52.254;4.490;2023-04-03T07:48:50;3.15;;;0.55;;
31004;SDS011;17676;52.254;4.490;2023-04-03T07:51:15;1.38;;;0.30;;
31004;SDS011;17676;52.254;4.490;2023-04-03T07:53:47;2.58;;;0.40;;
31004;SDS011;17676;52.254;4.490;2023-04-03T07:56:13;1.83;;;0.30;;
31004;SDS011;17676;52.254;4.490;2023-04-03T07:58:44;2.25;;;0.30;;
31004;SDS011;17676;52.254;4.490;2023-04-03T08:01:10;0.77;;;0.40;;
31004;SDS011;17676;52.254;4.490;2023-04-03T08:03:42;4.72;;;0.40;;
31004;SDS011;17676;52.254;4.490;2023-04-03T08:06:10;3.45;;;0.45;;
31004;SDS011;17676;52.254;4.490;2023-04-03T08:08:36;2.28;;;0.30;;
31004;SDS011;17676;52.254;4.490;2023-04-03T08:11:01;1.13;;;0.20;;
31004;SDS011;17676;52.254;4.490;2023-04-03T08:13:31;1.35;;;0.30;;
31004;SDS011;17676;52.254;4.490;2023-04-03T08:15:57;1.02;;;0.30;;
31004;SDS011;17676;52.254;4.490;2023-04-03T08:18:24;1.95;;;0.25;;
31004;SDS011;17676;52.254;4.490;2023-04-03T08:20:52;2.92;;;0.40;;
31004;SDS011;17676;52.254;4.490;2023-04-03T08:23:18;2.50;;;0.50;;
31004;SDS011;17676;52.254;4.490;2023-04-03T08:25:45;1.67;;;0.30;;
31004;SDS011;17676;52.254;4.490;2023-04-03T08:28:11;2.88;;;0.52;;
31004;SDS011;17676;52.254;4.490;2023-04-03T08:30:39;3.45;;;0.30;;
31004;SDS011;17676;52.254;4.490;2023-04-03T08:33:09;2.38;;;0.30;;
31004;SDS011;17676;52.254;4.490;2023-04-03T08:35:39;1.52;;;0.22;;
31004;SDS011;17676;52.254;4.490;2023-04-03T08:38:12;1.40;;;0.30;;
31004;SDS011;17676;52.254;4.490;2023-04-03T08:40:39;3.80;;;0.35;;
31004;SDS011;17676;52.254;4.490;2023-04-03T08:46:05;1.30;;;0.30;;
31004;SDS011;17676;52.254;4.490;2023-04-03T08:48:38;1.67;;;0.50;;
31004;SDS011;17676;52.254;4.490;2023-04-03T08:51:14;2.28;;;0.30;;
31004;SDS011;17676;52.254;4.490;2023-04-03T08:53:43;8.75;;;0.52;;
31004;SDS011;17676;52.254;4.490;2023-04-03T08:56:30;1.85;;;0.20;;
31004;SDS011;17676;52.254;4.490;2023-04-03T08:59:04;1.00;;;0.30;;
31004;SDS011;17676;52.254;4.490;2023-04-03T09:01:35;2.22;;;0.28;;
31004;SDS011;17676;52.254;4.490;2023-04-03T09:04:05;0.93;;;0.20;;
31004;SDS011;17676;52.254;4.490;2023-04-03T09:06:49;2.17;;;0.20;;
31004;SDS011;17676;52.254;4.490;2023-04-03T09:12:21;0.40;;;0.10;;
31004;SDS011;17676;52.254;4.490;2023-04-03T09:17:31;1.40;;;0.20;;
31004;SDS011;17676;52.254;4.490;2023-04-03T09:20:29;1.05;;;0.15;;
31004;SDS011;17676;52.254;4.490;2023-04-03T09:23:33;0.25;;;0.20;;
31004;SDS011;17676;52.254;4.490;2023-04-03T09:26:30;0.85;;;0.30;;
31004;SDS011;17676;52.254;4.490;2023-04-03T09:28:56;1.38;;;0.10;;
31004;SDS011;17676;52.254;4.490;2023-04-03T09:31:27;0.40;;;0.10;;
31004;SDS011;17676;52.254;4.490;2023-04-03T09:34:02;0.43;;;0.10;;
31004;SDS011;17676;52.254;4.490;2023-04-03T09:36:38;0.20;;;0.10;;
31004;SDS011;17676;52.254;4.490;2023-04-03T09:39:06;0.93;;;0.20;;
31004;SDS011;17676;52.254;4.490;2023-04-03T09:42:02;0.57;;;0.10;;
31004;SDS011;17676;52.254;4.490;2023-04-03T09:44:38;1.67;;;0.20;;
31004;SDS011;17676;52.254;4.490;2023-04-03T09:47:17;0.63;;;0.10;;
31004;SDS011;17676;52.254;4.490;2023-04-03T09:52:45;1.65;;;0.10;;
31004;SDS011;17676;52.254;4.490;2023-04-03T09:55:17;0.60;;;0.10;;
31004;SDS011;17676;52.254;4.490;2023-04-03T09:57:46;0.40;;;0.10;;
31004;SDS011;17676;52.254;4.490;2023-04-03T10:00:35;0.52;;;0.20;;
31004;SDS011;17676;52.254;4.490;2023-04-03T10:03:05;1.02;;;0.17;;
31004;SDS011;17676;52.254;4.490;2023-04-03T10:05:54;0.30;;;0.13;;
31004;SDS011;17676;52.254;4.490;2023-04-03T10:11:04;0.55;;;0.10;;
31004;SDS011;17676;52.254;4.490;2023-04-03T10:13:49;1.52;;;0.20;;
31004;SDS011;17676;52.254;4.490;2023-04-03T10:16:23;0.73;;;0.20;;
31004;SDS011;17676;52.254;4.490;2023-04-03T10:18:56;1.02;;;0.30;;
31004;SDS011;17676;52.254;4.490;2023-04-03T10:27:49;3.97;;;0.13;;
31004;SDS011;17676;52.254;4.490;2023-04-03T10:33:32;1.60;;;0.38;;
31004;SDS011;17676;52.254;4.490;2023-04-03T10:39:00;0.20;;;0.10;;
31004;SDS011;17676;52.254;4.490;2023-04-03T10:47:02;2.53;;;0.20;;
31004;SDS011;17676;52.254;4.490;2023-04-03T10:52:43;1.20;;;0.10;;
31004;SDS011;17676;52.254;4.490;2023-04-03T10:55:36;0.55;;;0.10;;
31004;SDS011;17676;52.254;4.490;2023-04-03T10:58:26;0.95;;;0.10;;
31004;SDS011;17676;52.254;4.490;2023-04-03T11:00:59;0.20;;;0.10;;
31004;SDS011;17676;52.254;4.490;2023-04-03T11:03:32;2.40;;;0.20;;
31004;SDS011;17676;52.254;4.490;2023-04-03T11:06:11;1.08;;;0.10;;
31004;SDS011;17676;52.254;4.490;2023-04-03T11:08:43;2.20;;;0.30;;
31004;SDS011;17676;52.254;4.490;2023-04-03T11:11:13;0.40;;;0.20;;
31004;SDS011;17676;52.254;4.490;2023-04-03T11:14:05;0.20;;;0.10;;
31004;SDS011;17676;52.254;4.490;2023-04-03T11:16:45;0.90;;;0.10;;
31004;SDS011;17676;52.254;4.490;2023-04-03T11:27:40;1.75;;;0.10;;
31004;SDS011;17676;52.254;4.490;2023-04-03T11:30:17;0.40;;;0.10;;
31004;SDS011;17676;52.254;4.490;2023-04-03T11:32:55;0.38;;;0.10;;
31004;SDS011;17676;52.254;4.490;2023-04-03T11:35:30;0.30;;;0.10;;
31004;SDS011;17676;52.254;4.490;2023-04-03T11:37:58;0.57;;;0.10;;
31004;SDS011;17676;52.254;4.490;2023-04-03T11:40:31;0.17;;;0.10;;
31004;SDS011;17676;52.254;4.490;2023-04-03T11:45:28;1.05;;;0.10;;
31004;SDS011;17676;52.254;4.490;2023-04-03T11:50:44;2.05;;;0.10;;
31004;SDS011;17676;52.254;4.490;2023-04-03T11:55:44;0.45;;;0.10;;
31004;SDS011;17676;52.254;4.490;2023-04-03T11:58:16;0.28;;;0.10;;
31004;SDS011;17676;52.254;4.490;2023-04-03T12:00:51;0.60;;;0.10;;
31004;SDS011;17676;52.254;4.490;2023-04-03T12:05:48;0.10;;;0.10;;
31004;SDS011;17676;52.254;4.490;2023-04-03T12:08:25;0.30;;;0.08;;
31004;SDS011;17676;52.254;4.490;2023-04-03T12:13:42;1.30;;;0.10;;
31004;SDS011;17676;52.254;4.490;2023-04-03T12:51:26;0.10;;;0.10;;
31004;SDS011;17676;52.254;4.490;2023-04-03T12:54:01;1.17;;;0.10;;
31004;SDS011;17676;52.254;4.490;2023-04-03T12:56:35;0.10;;;0.10;;
31004;SDS011;17676;52.254;4.490;2023-04-03T13:04:45;1.40;;;0.20;;
31004;SDS011;17676;52.254;4.490;2023-04-03T13:10:15;1.05;;;0.20;;
31004;SDS011;17676;52.254;4.490;2023-04-03T13:12:47;1.35;;;0.10;;
31004;SDS011;17676;52.254;4.490;2023-04-03T13:17:51;0.55;;;0.10;;
31004;SDS011;17676;52.254;4.490;2023-04-03T13:20:21;0.60;;;0.10;;
31004;SDS011;17676;52.254;4.490;2023-04-03T13:23:05;1.60;;;0.13;;
31004;SDS011;17676;52.254;4.490;2023-04-03T13:25:35;0.57;;;0.10;;
31004;SDS011;17676;52.254;4.490;2023-04-03T13:28:04;1.83;;;0.15;;
31004;SDS011;17676;52.254;4.490;2023-04-03T13:30:37;0.93;;;0.10;;
31004;SDS011;17676;52.254;4.490;2023-04-03T13:33:30;0.10;;;0.10;;
31004;SDS011;17676;52.254;4.490;2023-04-03T13:36:15;0.75;;;0.10;;
31004;SDS011;17676;52.254;4.490;2023-04-03T13:38:44;0.50;;;0.10;;
31004;SDS011;17676;52.254;4.490;2023-04-03T13:46:56;0.10;;;0.10;;
31004;SDS011;17676;52.254;4.490;2023-04-03T13:51:51;1.90;;;0.10;;
31004;SDS011;17676;52.254;4.490;2023-04-03T13:54:22;1.52;;;0.20;;
31004;SDS011;17676;52.254;4.490;2023-04-03T13:56:59;0.75;;;0.20;;
31004;SDS011;17676;52.254;4.490;2023-04-03T13:59:35;0.85;;;0.10;;
31004;SDS011;17676;52.254;4.490;2023-04-03T14:04:28;0.17;;;0.17;;
31004;SDS011;17676;52.254;4.490;2023-04-03T14:06:56;0.30;;;0.20;;
31004;SDS011;17676;52.254;4.490;2023-04-03T14:09:23;0.20;;;0.10;;
31004;SDS011;17676;52.254;4.490;2023-04-03T14:11:55;1.95;;;0.10;;
31004;SDS011;17676;52.254;4.490;2023-04-03T14:14:30;0.85;;;0.10;;
31004;SDS011;17676;52.254;4.490;2023-04-03T14:16:58;0.80;;;0.10;;
31004;SDS011;17676;52.254;4.490;2023-04-03T14:19:30;1.65;;;0.10;;
31004;SDS011;17676;52.254;4.490;2023-04-03T14:21:58;0.55;;;0.10;;
31004;SDS011;17676;52.254;4.490;2023-04-03T14:24:29;0.30;;;0.20;;
31004;SDS011;17676;52.254;4.490;2023-04-03T14:26:55;1.60;;;0.13;;
31004;SDS011;17676;52.254;4.490;2023-04-03T14:29:20;2.30;;;0.20;;
31004;SDS011;17676;52.254;4.490;2023-04-03T14:31:50;1.92;;;0.20;;
31004;SDS011;17676;52.254;4.490;2023-04-03T14:34:16;0.70;;;0.10;;
31004;SDS011;17676;52.254;4.490;2023-04-03T14:36:42;0.80;;;0.17;;
31004;SDS011;17676;52.254;4.490;2023-04-03T14:39:11;0.30;;;0.20;;
31004;SDS011;17676;52.254;4.490;2023-04-03T14:41:42;0.25;;;0.10;;
31004;SDS011;17676;52.254;4.490;2023-04-03T14:44:08;0.63;;;0.20;;
31004;SDS011;17676;52.254;4.490;2023-04-03T14:46:38;1.75;;;0.20;;
31004;SDS011;17676;52.254;4.490;2023-04-03T14:49:18;0.60;;;0.20;;
31004;SDS011;17676;52.254;4.490;2023-04-03T14:51:55;1.55;;;0.20;;
31004;SDS011;17676;52.254;4.490;2023-04-03T14:54:24;1.85;;;0.20;;
31004;SDS011;17676;52.254;4.490;2023-04-03T14:56:54;0.35;;;0.10;;
31004;SDS011;17676;52.254;4.490;2023-04-03T14:59:22;1.10;;;0.20;;
31004;SDS011;17676;52.254;4.490;2023-04-03T15:01:48;1.25;;;0.20;;
31004;SDS011;17676;52.254;4.490;2023-04-03T15:04:15;1.00;;;0.20;;
31004;SDS011;17676;52.254;4.490;2023-04-03T15:06:43;2.22;;;0.20;;
31004;SDS011;17676;52.254;4.490;2023-04-03T15:09:23;2.40;;;0.30;;
31004;SDS011;17676;52.254;4.490;2023-04-03T15:11:52;1.92;;;0.20;;
31004;SDS011;17676;52.254;4.490;2023-04-03T15:14:18;1.55;;;0.35;;
31004;SDS011;17676;52.254;4.490;2023-04-03T15:16:48;0.52;;;0.20;;
31004;SDS011;17676;52.254;4.490;2023-04-03T15:19:16;0.52;;;0.20;;
31004;SDS011;17676;52.254;4.490;2023-04-03T15:21:42;1.40;;;0.30;;
31004;SDS011;17676;52.254;4.490;2023-04-03T15:24:08;1.27;;;0.30;;
31004;SDS011;17676;52.254;4.490;2023-04-03T15:26:36;0.35;;;0.20;;
31004;SDS011;17676;52.254;4.490;2023-04-03T15:29:03;2.15;;;0.32;;
31004;SDS011;17676;52.254;4.490;2023-04-03T15:31:29;2.20;;;0.30;;
31004;SDS011;17676;52.254;4.490;2023-04-03T15:33:55;0.80;;;0.30;;
31004;SDS011;17676;52.254;4.490;2023-04-03T15:36:21;0.35;;;0.20;;
31004;SDS011;17676;52.254;4.490;2023-04-03T15:38:46;0.55;;;0.20;;
31004;SDS011;17676;52.254;4.490;2023-04-03T15:41:12;1.10;;;0.20;;
31004;SDS011;17676;52.254;4.490;2023-04-03T15:43:39;1.00;;;0.20;;
31004;SDS011;17676;52.254;4.490;2023-04-03T15:46:04;2.60;;;0.30;;
31004;SDS011;17676;52.254;4.490;2023-04-03T15:48:31;2.35;;;0.20;;
31004;SDS011;17676;52.254;4.490;2023-04-03T15:50:57;2.40;;;0.20;;
31004;SDS011;17676;52.254;4.490;2023-04-03T15:53:23;1.95;;;0.20;;
31004;SDS011;17676;52.254;4.490;2023-04-03T15:55:49;1.77;;;0.30;;
31004;SDS011;17676;52.254;4.490;2023-04-03T15:58:15;0.35;;;0.20;;
31004;SDS011;17676;52.254;4.490;2023-04-03T16:00:42;1.33;;;0.30;;
31004;SDS011;17676;52.254;4.490;2023-04-03T16:03:10;0.88;;;0.20;;
31004;SDS011;17676;52.254;4.490;2023-04-03T16:05:38;0.47;;;0.20;;
31004;SDS011;17676;52.254;4.490;2023-04-03T16:08:05;3.05;;;0.20;;
31004;SDS011;17676;52.254;4.490;2023-04-03T16:10:32;1.23;;;0.20;;
31004;SDS011;17676;52.254;4.490;2023-04-03T16:12:59;0.95;;;0.20;;
31004;SDS011;17676;52.254;4.490;2023-04-03T16:15:25;1.73;;;0.22;;
31004;SDS011;17676;52.254;4.490;2023-04-03T16:17:52;1.02;;;0.20;;
31004;SDS011;17676;52.254;4.490;2023-04-03T16:20:23;0.80;;;0.20;;
31004;SDS011;17676;52.254;4.490;2023-04-03T16:22:50;1.90;;;0.20;;
31004;SDS011;17676;52.254;4.490;2023-04-03T16:25:15;1.38;;;0.20;;
31004;SDS011;17676;52.254;4.490;2023-04-03T16:27:43;0.65;;;0.20;;
31004;SDS011;17676;52.254;4.490;2023-04-03T16:30:12;1.30;;;0.20;;
31004;SDS011;17676;52.254;4.490;2023-04-03T16:32:38;1.05;;;0.20;;
31004;SDS011;17676;52.254;4.490;2023-04-03T16:35:05;1.40;;;0.20;;
31004;SDS011;17676;52.254;4.490;2023-04-03T16:37:32;1.30;;;0.20;;
31004;SDS011;17676;52.254;4.490;2023-04-03T16:39:58;1.75;;;0.20;;
31004;SDS011;17676;52.254;4.490;2023-04-03T16:42:24;1.63;;;0.20;;
31004;SDS011;17676;52.254;4.490;2023-04-03T16:44:50;1.65;;;0.30;;
31004;SDS011;17676;52.254;4.490;2023-04-03T16:47:16;0.75;;;0.20;;
31004;SDS011;17676;52.254;4.490;2023-04-03T16:49:44;3.72;;;0.25;;
31004;SDS011;17676;52.254;4.490;2023-04-03T16:52:10;1.05;;;0.20;;
31004;SDS011;17676;52.254;4.490;2023-04-03T16:54:36;1.02;;;0.20;;
31004;SDS011;17676;52.254;4.490;2023-04-03T16:57:03;1.30;;;0.20;;
31004;SDS011;17676;52.254;4.490;2023-04-03T16:59:30;1.83;;;0.20;;
31004;SDS011;17676;52.254;4.490;2023-04-03T17:01:56;3.63;;;0.20;;
31004;SDS011;17676;52.254;4.490;2023-04-03T17:04:22;0.73;;;0.20;;
31004;SDS011;17676;52.254;4.490;2023-04-03T17:06:49;2.88;;;0.20;;
31004;SDS011;17676;52.254;4.490;2023-04-03T17:09:18;1.92;;;0.30;;
31004;SDS011;17676;52.254;4.490;2023-04-03T17:11:45;1.60;;;0.38;;
31004;SDS011;17676;52.254;4.490;2023-04-03T17:14:11;1.75;;;0.20;;